createdAt,value
2023-05-10T00:00:28.082Z,42.65
2023-05-10T00:03:00.453Z,41.50
2023-05-10T00:05:33.613Z,41.08
2023-05-10T00:08:06.111Z,41.64
2023-05-10T00:10:38.730Z,42.22
2023-05-10T00:13:10.879Z,40.53
2023-05-10T00:15:43.081Z,40.99
2023-05-10T00:18:15.268Z,39.99
2023-05-10T00:20:47.674Z,39.98
2023-05-10T00:23:20.038Z,40.26
2023-05-10T00:25:52.209Z,40.29
2023-05-10T00:28:24.712Z,40.39
2023-05-10T00:30:57.323Z,39.66
2023-05-10T00:33:29.640Z,39.01
2023-05-10T00:36:01.858Z,38.46
2023-05-10T00:38:34.937Z,39.06
2023-05-10T00:41:07.823Z,39.38
2023-05-10T00:43:40.241Z,39.21
2023-05-10T00:46:12.806Z,38.73
2023-05-10T00:48:45.958Z,39.23
2023-05-10T00:51:18.324Z,39.24
2023-05-10T00:53:52.507Z,38.72
2023-05-10T00:56:25.936Z,38.65
2023-05-10T00:58:58.309Z,39.55
2023-05-10T01:01:31.141Z,39.03
2023-05-10T01:04:04.705Z,39.62
2023-05-10T01:06:36.967Z,39.35
2023-05-10T01:09:09.386Z,39.73
2023-05-10T01:11:41.661Z,39.45
2023-05-10T01:14:13.928Z,40.49
2023-05-10T01:16:47.317Z,40.28
2023-05-10T01:19:31.079Z,39.17
2023-05-10T01:22:38.486Z,38.89
2023-05-10T01:25:46.988Z,39.12
2023-05-10T01:28:32.722Z,39.85
2023-05-10T01:31:29.973Z,39.57
2023-05-10T01:34:22.507Z,39.98
2023-05-10T01:37:20.045Z,39.88
2023-05-10T01:40:04.790Z,40.08
2023-05-10T01:42:49.413Z,39.78
2023-05-10T01:45:43.480Z,40.15
2023-05-10T01:48:17.627Z,40.51
2023-05-10T01:50:51.237Z,40.39
2023-05-10T01:53:24.297Z,41.27
2023-05-10T01:55:57.623Z,40.45
2023-05-10T01:58:35.608Z,40.67
2023-05-10T02:01:09.643Z,40.90
2023-05-10T02:03:44.371Z,41.11
2023-05-10T02:06:23.068Z,41.34
2023-05-10T02:08:56.424Z,41.50
2023-05-10T02:11:30.117Z,40.73
2023-05-10T02:14:03.574Z,40.21
2023-05-10T02:16:38.176Z,41.05
2023-05-10T02:19:12.144Z,41.49
2023-05-10T02:21:45.912Z,41.58
2023-05-10T02:24:19.095Z,41.33
2023-05-10T02:26:55.219Z,42.06
2023-05-10T02:29:29.727Z,42.15
2023-05-10T02:32:03.136Z,42.68
2023-05-10T02:34:36.083Z,42.32
2023-05-10T02:37:09.078Z,42.98
2023-05-10T02:39:45.022Z,42.52
2023-05-10T02:42:27.800Z,43.45
2023-05-10T02:45:04.057Z,43.66
2023-05-10T02:47:36.612Z,43.38
2023-05-10T02:50:09.935Z,43.04
2023-05-10T02:52:49.469Z,43.45
2023-05-10T02:55:27.420Z,43.75
2023-05-10T02:58:02.237Z,43.83
2023-05-10T03:00:34.959Z,49.81
2023-05-10T03:03:08.088Z,48.67
2023-05-10T03:05:40.358Z,51.28
2023-05-10T03:08:13.022Z,52.25
2023-05-10T03:11:48.063Z,53.73
2023-05-10T03:15:13.168Z,53.19
2023-05-10T03:18:12.431Z,51.71
2023-05-10T03:20:51.607Z,53.67
2023-05-10T03:23:42.720Z,52.07
2023-05-10T03:26:34.639Z,51.18
2023-05-10T03:29:09.253Z,49.55
2023-05-10T03:31:41.642Z,50.78
2023-05-10T03:34:13.911Z,51.22
2023-05-10T03:36:46.153Z,51.95
2023-05-10T03:39:18.485Z,51.32
2023-05-10T03:41:50.652Z,55.40
2023-05-10T03:44:22.902Z,55.47
2023-05-10T03:46:55.294Z,55.95
2023-05-10T03:49:27.551Z,58.60
2023-05-10T03:51:59.708Z,56.92
2023-05-10T03:54:32.163Z,55.74
2023-05-10T03:57:05.141Z,56.69
2023-05-10T03:59:37.362Z,57.38
2023-05-10T04:02:09.573Z,58.86
2023-05-10T04:04:42.038Z,57.84
2023-05-10T04:07:14.361Z,58.63
2023-05-10T04:09:46.667Z,57.40
2023-05-10T04:12:18.914Z,60.40
2023-05-10T04:14:51.178Z,60.95
2023-05-10T04:17:23.466Z,63.58
2023-05-10T04:19:56.180Z,62.63
2023-05-10T04:22:29.045Z,65.00
2023-05-10T04:25:01.369Z,63.99
2023-05-10T04:27:33.713Z,61.60
2023-05-10T04:30:07.052Z,62.00
2023-05-10T04:32:39.437Z,64.74
2023-05-10T04:35:12.077Z,64.42
2023-05-10T04:37:44.434Z,67.70
2023-05-10T04:40:16.990Z,68.47
2023-05-10T04:42:49.457Z,70.17
2023-05-10T04:45:22.167Z,71.69
2023-05-10T04:47:54.536Z,72.71
2023-05-10T04:50:27.187Z,74.87
2023-05-10T04:52:59.414Z,75.10
2023-05-10T04:55:31.689Z,77.79
2023-05-10T04:58:04.143Z,79.45
2023-05-10T05:00:36.699Z,81.57
2023-05-10T05:03:08.889Z,80.92
2023-05-10T05:05:41.175Z,81.18
2023-05-10T05:08:14.073Z,81.44
2023-05-10T05:10:46.274Z,82.81
2023-05-10T05:13:18.480Z,84.05
2023-05-10T05:15:50.740Z,84.99
2023-05-10T05:18:24.830Z,83.40
2023-05-10T05:20:57.117Z,85.39
2023-05-10T05:23:29.286Z,86.88
2023-05-10T05:26:01.457Z,87.45
2023-05-10T05:28:35.916Z,87.92
2023-05-10T05:31:09.193Z,89.12
2023-05-10T05:33:42.253Z,90.27
2023-05-10T05:36:14.436Z,90.11
2023-05-10T05:38:48.203Z,91.25
2023-05-10T05:41:21.232Z,90.99
2023-05-10T05:43:53.407Z,93.68
2023-05-10T05:46:25.876Z,93.46
2023-05-10T05:48:58.319Z,93.29
2023-05-10T05:51:30.465Z,96.08
2023-05-10T05:54:04.680Z,95.68
2023-05-10T05:56:36.933Z,97.88
2023-05-10T05:59:09.162Z,98.87
2023-05-10T06:01:41.377Z,98.00
2023-05-10T06:04:14.731Z,99.71
2023-05-10T06:06:47.064Z,100.00
2023-05-10T06:09:19.232Z,100.00
2023-05-10T06:11:51.402Z,100.00
2023-05-10T06:14:23.608Z,100.00
2023-05-10T06:16:56.089Z,100.00
2023-05-10T06:19:28.499Z,100.00
2023-05-10T06:22:00.784Z,100.00
2023-05-10T06:24:36.915Z,100.00
2023-05-10T06:27:09.273Z,100.00
2023-05-10T06:29:41.508Z,100.00
2023-05-10T06:32:13.741Z,100.00
2023-05-10T06:34:45.873Z,100.00
2023-05-10T06:37:18.206Z,100.00
2023-05-10T06:39:50.798Z,100.00
2023-05-10T06:42:23.060Z,100.00
2023-05-10T06:44:55.164Z,100.00
2023-05-10T06:47:27.301Z,100.00
2023-05-10T06:49:59.702Z,100.00
2023-05-10T06:52:31.981Z,100.00
2023-05-10T06:55:05.884Z,100.00
2023-05-10T06:57:38.463Z,100.00
2023-05-10T07:00:11.560Z,100.00
2023-05-10T07:02:44.001Z,100.00
2023-05-10T07:05:16.761Z,100.00
2023-05-10T07:07:49.182Z,100.00
2023-05-10T07:10:45.619Z,100.00
2023-05-10T07:13:18.121Z,100.00
2023-05-10T07:15:50.635Z,100.00
2023-05-10T07:18:22.932Z,100.00
2023-05-10T07:20:57.493Z,100.00
2023-05-10T07:23:35.085Z,100.00
2023-05-10T07:26:08.217Z,100.00
2023-05-10T07:28:42.481Z,100.00
2023-05-10T07:31:14.949Z,100.00
2023-05-10T07:33:47.623Z,100.00
2023-05-10T07:36:19.832Z,100.00
2023-05-10T07:38:56.283Z,100.00
2023-05-10T07:41:28.560Z,100.00
2023-05-10T07:44:00.967Z,100.00
2023-05-10T07:46:33.543Z,100.00
2023-05-10T07:49:06.159Z,100.00
2023-05-10T07:51:38.414Z,100.00
2023-05-10T07:54:10.892Z,100.00
2023-05-10T07:56:48.446Z,100.00
2023-05-10T07:59:21.245Z,100.00
2023-05-10T08:01:53.436Z,100.00
2023-05-10T08:04:25.670Z,100.00
2023-05-10T08:06:57.985Z,100.00
2023-05-10T08:09:30.164Z,100.00
2023-05-10T08:12:02.474Z,100.00
2023-05-10T08:14:36.928Z,100.00
2023-05-10T08:17:09.006Z,100.00
2023-05-10T08:19:41.256Z,100.00
2023-05-10T08:22:13.686Z,100.00
2023-05-10T08:24:46.394Z,100.00
2023-05-10T08:27:18.603Z,100.00
2023-05-10T08:29:50.863Z,100.00
2023-05-10T08:32:23.218Z,100.00
2023-05-10T08:34:55.370Z,100.00
2023-05-10T08:37:31.184Z,100.00
2023-05-10T08:40:04.261Z,100.00
2023-05-10T08:42:41.910Z,100.00
2023-05-10T08:45:15.006Z,100.00
2023-05-10T08:47:47.795Z,100.00
2023-05-10T08:50:24.589Z,100.00
2023-05-10T08:53:02.361Z,100.00
2023-05-10T08:55:35.352Z,100.00
2023-05-10T08:58:08.319Z,100.00
2023-05-10T09:00:41.267Z,100.00
2023-05-10T09:03:14.106Z,100.00
2023-05-10T09:05:47.067Z,100.00
2023-05-10T09:08:19.658Z,100.00
2023-05-10T09:10:52.026Z,99.74
2023-05-10T09:13:25.239Z,100.00
2023-05-10T09:16:00.357Z,99.66
2023-05-10T09:18:36.660Z,98.46
2023-05-10T09:21:09.160Z,98.35
2023-05-10T09:23:48.033Z,98.70
2023-05-10T09:26:26.894Z,96.44
2023-05-10T09:29:01.193Z,96.66
2023-05-10T09:31:53.718Z,90.59
2023-05-10T09:34:33.529Z,92.83
2023-05-10T09:37:05.716Z,94.04
2023-05-10T09:39:39.057Z,94.52
2023-05-10T09:42:14.370Z,95.45
2023-05-10T09:44:47.454Z,95.42
2023-05-10T09:47:22.996Z,96.11
2023-05-10T09:49:58.978Z,95.17
2023-05-10T09:52:53.123Z,95.88
2023-05-10T09:55:32.002Z,94.32
2023-05-10T09:58:05.535Z,94.98
2023-05-10T10:00:43.146Z,95.57
2023-05-10T10:03:18.176Z,96.24
2023-05-10T10:05:50.513Z,93.63
2023-05-10T10:08:22.845Z,91.95
2023-05-10T10:10:55.248Z,88.45
2023-05-10T10:13:27.453Z,84.12
2023-05-10T10:15:59.961Z,85.50
2023-05-10T10:18:32.729Z,88.27
2023-05-10T10:21:04.890Z,92.35
2023-05-10T10:23:37.029Z,95.95
2023-05-10T10:26:09.299Z,99.73
2023-05-10T10:29:05.919Z,100.00
2023-05-10T10:31:48.835Z,100.00
2023-05-10T10:34:29.123Z,100.00
2023-05-10T10:37:07.052Z,100.00
2023-05-10T10:39:39.320Z,100.00
2023-05-10T10:42:11.425Z,100.00
2023-05-10T10:45:15.878Z,100.00
2023-05-10T10:47:48.378Z,96.13
2023-05-10T10:50:25.488Z,87.85
2023-05-10T10:53:13.167Z,87.63
2023-05-10T10:55:49.482Z,84.69
2023-05-10T10:58:34.357Z,81.93
2023-05-10T11:01:20.385Z,75.63
2023-05-10T11:04:01.942Z,76.49
2023-05-10T11:06:38.100Z,77.34
2023-05-10T11:09:13.823Z,79.55
2023-05-10T11:11:56.572Z,78.29
2023-05-10T11:14:28.852Z,82.24
2023-05-10T11:17:03.239Z,82.52
2023-05-10T11:19:36.019Z,84.17
2023-05-10T11:22:08.036Z,85.48
2023-05-10T11:24:40.203Z,85.47
2023-05-10T11:27:13.230Z,86.89
2023-05-10T11:29:46.532Z,81.31
2023-05-10T11:32:20.574Z,83.23
2023-05-10T11:34:52.750Z,82.58
2023-05-10T11:37:24.937Z,79.80
2023-05-10T11:39:57.564Z,77.33
2023-05-10T11:42:31.340Z,79.16
2023-05-10T11:45:03.696Z,79.05
2023-05-10T11:47:36.999Z,79.78
2023-05-10T11:50:12.127Z,80.89
2023-05-10T11:52:44.400Z,79.36
2023-05-10T11:55:18.887Z,80.15
2023-05-10T11:57:54.896Z,80.58
2023-05-10T12:00:27.231Z,82.01
2023-05-10T12:02:59.917Z,93.12
2023-05-10T12:05:34.460Z,99.84
2023-05-10T12:08:17.910Z,100.00
2023-05-10T12:10:50.213Z,100.00
2023-05-10T12:13:22.557Z,100.00
2023-05-10T12:15:54.652Z,100.00
2023-05-10T12:18:26.872Z,100.00
2023-05-10T12:21:05.577Z,100.00
2023-05-10T12:23:37.980Z,100.00
2023-05-10T12:26:13.186Z,100.00
2023-05-10T12:28:45.626Z,100.00
2023-05-10T12:31:17.887Z,100.00
2023-05-10T12:33:54.078Z,100.00
2023-05-10T12:36:26.579Z,100.00
2023-05-10T12:39:04.575Z,100.00
2023-05-10T12:41:36.628Z,100.00
2023-05-10T12:44:08.695Z,100.00
2023-05-10T12:46:40.927Z,100.00
2023-05-10T12:49:13.055Z,99.81
2023-05-10T12:51:46.547Z,97.89
2023-05-10T12:54:18.683Z,99.87
2023-05-10T12:56:50.777Z,100.00
2023-05-10T12:59:29.629Z,100.00
2023-05-10T13:02:01.797Z,100.00
2023-05-10T13:04:36.655Z,100.00
2023-05-10T13:07:09.083Z,100.00
2023-05-10T13:09:41.387Z,96.94
2023-05-10T13:12:13.478Z,93.70
2023-05-10T13:14:45.627Z,92.65
2023-05-10T13:17:17.766Z,92.42
2023-05-10T13:19:50.243Z,95.65
2023-05-10T13:22:32.463Z,95.20
2023-05-10T13:25:09.991Z,96.31
2023-05-10T13:27:42.090Z,96.97
2023-05-10T13:30:14.438Z,96.61
2023-05-10T13:32:46.939Z,93.04
2023-05-10T13:35:19.261Z,86.03
2023-05-10T13:37:51.515Z,82.97
2023-05-10T13:40:23.698Z,83.50
2023-05-10T13:42:56.052Z,85.58
2023-05-10T13:45:28.467Z,86.75
2023-05-10T13:48:00.708Z,83.62
2023-05-10T13:50:32.831Z,83.53
2023-05-10T13:53:04.890Z,86.15
2023-05-10T13:55:37.232Z,86.96
2023-05-10T13:58:09.421Z,85.97
2023-05-10T14:00:41.717Z,85.49
2023-05-10T14:03:15.781Z,85.80
2023-05-10T14:05:48.549Z,86.01
2023-05-10T14:08:24.341Z,84.85
2023-05-10T14:10:57.616Z,83.24
2023-05-10T14:13:30.002Z,84.31
2023-05-10T14:16:04.757Z,85.69
2023-05-10T14:18:36.950Z,87.00
2023-05-10T14:21:09.068Z,86.39
2023-05-10T14:23:41.434Z,84.20
2023-05-10T14:26:13.692Z,80.90
2023-05-10T14:28:47.922Z,73.66
2023-05-10T14:31:21.770Z,69.45
2023-05-10T14:33:54.914Z,69.44
2023-05-10T14:36:27.196Z,71.43
2023-05-10T14:38:59.298Z,70.55
2023-05-10T14:41:32.220Z,70.32
2023-05-10T14:44:04.698Z,71.77
2023-05-10T14:46:37.354Z,71.64
2023-05-10T14:49:09.612Z,74.68
2023-05-10T14:51:46.218Z,71.68
2023-05-10T14:54:19.703Z,72.77
2023-05-10T14:56:51.994Z,74.50
2023-05-10T14:59:24.315Z,73.14
2023-05-10T15:01:57.138Z,76.49
2023-05-10T15:04:29.813Z,78.82
2023-05-10T15:07:05.455Z,78.63
2023-05-10T15:09:37.627Z,78.34
2023-05-10T15:12:09.836Z,78.10
2023-05-10T15:14:42.184Z,80.78
2023-05-10T15:17:14.444Z,81.73
2023-05-10T15:19:46.913Z,79.88
2023-05-10T15:22:19.363Z,80.12
2023-05-10T15:24:51.776Z,81.91
2023-05-10T15:27:24.274Z,83.25
2023-05-10T15:29:56.429Z,83.01
2023-05-10T15:32:30.432Z,82.70
2023-05-10T15:35:03.719Z,83.59
2023-05-10T15:37:35.968Z,82.73
2023-05-10T15:40:08.747Z,81.93
2023-05-10T15:42:40.973Z,80.76
2023-05-10T15:45:13.353Z,78.43
2023-05-10T15:47:46.625Z,79.01
2023-05-10T15:50:19.095Z,77.82
2023-05-10T15:52:51.718Z,77.36
2023-05-10T15:55:23.986Z,75.72
2023-05-10T15:57:56.291Z,76.95
2023-05-10T16:00:30.874Z,77.42
2023-05-10T16:03:03.176Z,77.51
2023-05-10T16:05:35.509Z,77.49
2023-05-10T16:08:07.749Z,77.98
2023-05-10T16:10:40.224Z,80.59
2023-05-10T16:13:14.742Z,81.69
2023-05-10T16:15:48.544Z,83.19
2023-05-10T16:18:20.880Z,83.29
2023-05-10T16:20:55.046Z,84.07
2023-05-10T16:23:28.333Z,83.61
2023-05-10T16:26:01.079Z,84.07
2023-05-10T16:28:33.379Z,84.75
2023-05-10T16:31:06.025Z,81.92
2023-05-10T16:33:38.378Z,79.35
2023-05-10T16:36:13.460Z,78.67
2023-05-10T16:38:45.925Z,77.68
2023-05-10T16:41:18.205Z,79.98
2023-05-10T16:43:50.660Z,79.04
2023-05-10T16:46:23.045Z,78.12
2023-05-10T16:48:56.073Z,78.60
2023-05-10T16:51:29.517Z,78.65
2023-05-10T16:54:01.826Z,76.75
2023-05-10T16:56:34.777Z,77.04
2023-05-10T16:59:09.648Z,76.76
2023-05-10T17:01:42.148Z,77.01
2023-05-10T17:04:14.671Z,78.04
2023-05-10T17:06:50.178Z,79.09
2023-05-10T17:09:22.242Z,79.06
2023-05-10T17:11:54.299Z,78.52
2023-05-10T17:14:26.551Z,79.39
2023-05-10T17:16:58.713Z,80.08
2023-05-10T17:19:31.036Z,82.02
2023-05-10T17:22:03.112Z,82.11
2023-05-10T17:24:36.842Z,81.36
2023-05-10T17:27:08.918Z,82.05
2023-05-10T17:29:41.222Z,83.53
2023-05-10T17:32:13.326Z,82.23
2023-05-10T17:34:45.523Z,82.07
2023-05-10T17:37:17.863Z,81.88
2023-05-10T17:39:49.958Z,81.31
2023-05-10T17:42:22.051Z,80.72
2023-05-10T17:44:54.174Z,80.64
2023-05-10T17:47:44.268Z,79.42
2023-05-10T17:50:16.638Z,80.81
2023-05-10T17:52:48.846Z,82.18
2023-05-10T17:55:24.738Z,81.26
2023-05-10T17:57:59.527Z,79.68
2023-05-10T18:00:31.718Z,80.21
2023-05-10T18:03:05.182Z,79.84
2023-05-10T18:05:39.132Z,80.27
2023-05-10T18:08:11.338Z,80.77
2023-05-10T18:10:43.511Z,81.22
2023-05-10T18:13:15.696Z,81.49
2023-05-10T18:15:48.368Z,82.21
2023-05-10T18:18:21.253Z,81.98
2023-05-10T18:20:56.897Z,82.92
2023-05-10T18:23:28.968Z,83.14
2023-05-10T18:26:02.426Z,83.41
2023-05-10T18:28:34.601Z,83.22
2023-05-10T18:31:06.773Z,82.84
2023-05-10T18:33:39.442Z,82.33
2023-05-10T18:36:12.001Z,82.98
2023-05-10T18:38:44.445Z,84.00
2023-05-10T18:41:16.937Z,84.07
2023-05-10T18:43:49.054Z,83.77
2023-05-10T18:46:21.394Z,83.80
2023-05-10T18:48:54.738Z,84.35
2023-05-10T18:51:29.179Z,84.71
2023-05-10T18:54:01.603Z,84.48
2023-05-10T18:56:36.952Z,84.58
2023-05-10T18:59:09.134Z,85.21
2023-05-10T19:01:41.958Z,85.94
2023-05-10T19:04:14.116Z,85.95
2023-05-10T19:06:46.368Z,86.19
2023-05-10T19:09:20.342Z,86.67
2023-05-10T19:11:55.033Z,85.73
2023-05-10T19:14:27.141Z,85.00
2023-05-10T19:17:02.559Z,85.72
2023-05-10T19:19:35.347Z,86.44
2023-05-10T19:22:07.606Z,87.25
2023-05-10T19:24:39.772Z,86.97
2023-05-10T19:27:12.065Z,87.31
2023-05-10T19:29:44.196Z,87.32
2023-05-10T19:32:19.273Z,87.60
2023-05-10T19:34:52.761Z,87.93
2023-05-10T19:37:25.304Z,88.24
2023-05-10T19:39:57.413Z,88.81
2023-05-10T19:42:29.562Z,89.11
2023-05-10T19:45:01.736Z,89.09
2023-05-10T19:47:34.720Z,89.17
2023-05-10T19:50:07.745Z,89.31
2023-05-10T19:52:40.210Z,89.72
2023-05-10T19:55:26.527Z,90.01
2023-05-10T19:58:03.819Z,89.90
2023-05-10T20:00:36.361Z,89.88
2023-05-10T20:03:09.400Z,89.53
2023-05-10T20:05:53.255Z,90.01
2023-05-10T20:08:25.518Z,90.31
2023-05-10T20:11:02.789Z,91.27
2023-05-10T20:13:35.036Z,91.47
2023-05-10T20:16:07.456Z,91.92
2023-05-10T20:18:39.641Z,91.50
2023-05-10T20:21:11.822Z,92.25
2023-05-10T20:23:44.058Z,91.82
2023-05-10T20:26:16.274Z,91.79
2023-05-10T20:28:48.380Z,92.17
2023-05-10T20:31:20.596Z,92.61
2023-05-10T20:33:52.929Z,92.27
2023-05-10T20:36:25.260Z,92.50
2023-05-10T20:38:57.480Z,92.48
2023-05-10T20:41:29.701Z,92.97
2023-05-10T20:44:03.443Z,92.83
2023-05-10T20:46:36.102Z,92.91
2023-05-10T20:49:09.365Z,93.17
2023-05-10T20:51:43.948Z,93.99
2023-05-10T20:54:16.252Z,94.26
2023-05-10T20:56:48.487Z,94.28
2023-05-10T20:59:21.663Z,94.47
2023-05-10T21:02:00.516Z,94.89
2023-05-10T21:04:32.882Z,94.92
2023-05-10T21:07:05.076Z,94.72
2023-05-10T21:09:37.304Z,95.14
2023-05-10T21:12:10.636Z,95.31
2023-05-10T21:14:56.365Z,95.56
2023-05-10T21:17:37.997Z,95.79
2023-05-10T21:20:11.206Z,95.78
2023-05-10T21:22:43.541Z,96.41
2023-05-10T21:25:15.800Z,96.19
2023-05-10T21:27:48.131Z,96.15
2023-05-10T21:30:20.626Z,96.29
2023-05-10T21:32:54.052Z,96.44
2023-05-10T21:35:26.963Z,97.06
2023-05-10T21:37:59.103Z,97.12
2023-05-10T21:40:31.168Z,97.05
2023-05-10T21:43:03.367Z,97.06
2023-05-10T21:45:36.704Z,97.93
2023-05-10T21:48:08.898Z,98.58
2023-05-10T21:53:36.939Z,99.02
2023-05-10T21:56:09.094Z,98.33
2023-05-10T21:58:47.489Z,98.71
2023-05-10T22:01:42.098Z,98.79
2023-05-10T22:04:19.215Z,98.78
2023-05-10T22:06:55.973Z,99.07
2023-05-10T22:09:28.155Z,99.05
2023-05-10T22:12:00.582Z,99.35
2023-05-10T22:14:32.681Z,99.25
2023-05-10T22:17:05.432Z,99.37
2023-05-10T22:19:37.843Z,100.00
2023-05-10T22:22:10.629Z,99.96
2023-05-10T22:24:42.847Z,100.00
2023-05-10T22:27:15.572Z,99.90
2023-05-10T22:29:48.857Z,100.00
2023-05-10T22:32:21.087Z,100.00
2023-05-10T22:34:53.321Z,100.00
2023-05-10T22:37:25.579Z,99.85
2023-05-10T22:39:57.796Z,100.00
2023-05-10T22:42:30.333Z,100.00
2023-05-10T22:45:02.530Z,100.00
2023-05-10T22:47:34.967Z,100.00
2023-05-10T22:50:08.199Z,100.00
2023-05-10T22:52:40.831Z,100.00
2023-05-10T22:55:13.437Z,100.00
2023-05-10T22:57:45.813Z,100.00
2023-05-10T23:00:18.435Z,100.00
2023-05-10T23:02:50.936Z,100.00
2023-05-10T23:05:23.059Z,100.00
2023-05-10T23:07:55.158Z,100.00
2023-05-10T23:10:49.150Z,100.00
2023-05-10T23:13:22.033Z,100.00
2023-05-10T23:15:54.204Z,100.00
2023-05-10T23:18:26.509Z,100.00
2023-05-10T23:20:58.583Z,100.00
2023-05-10T23:23:31.218Z,100.00
2023-05-10T23:26:46.446Z,100.00
2023-05-10T23:29:18.604Z,100.00
2023-05-10T23:31:51.507Z,100.00
2023-05-10T23:34:23.573Z,100.00
2023-05-10T23:36:55.695Z,100.00
2023-05-10T23:39:27.842Z,100.00
2023-05-10T23:42:18.463Z,100.00
2023-05-10T23:44:52.568Z,100.00
2023-05-10T23:47:24.844Z,100.00
2023-05-10T23:49:57.218Z,100.00
2023-05-10T23:52:29.361Z,100.00
2023-05-10T23:55:01.438Z,100.00
2023-05-10T23:57:33.529Z,100.00
